createdAt,value
2022-12-13T00:00:03.673Z,1003.42
2022-12-13T00:01:03.766Z,1003.43
2022-12-13T00:02:04.355Z,1003.42
2022-12-13T00:03:04.485Z,1003.39
2022-12-13T00:04:03.911Z,1003.37
2022-12-13T00:05:03.972Z,1003.32
2022-12-13T00:06:04.102Z,1003.32
2022-12-13T00:07:03.798Z,1003.34
2022-12-13T00:08:03.553Z,1003.36
2022-12-13T00:09:03.592Z,1003.33
2022-12-13T00:10:03.581Z,1003.33
2022-12-13T00:11:03.510Z,1003.38
2022-12-13T00:12:04.154Z,1003.37
2022-12-13T00:13:03.827Z,1003.37
2022-12-13T00:14:04.171Z,1003.39
2022-12-13T00:15:03.601Z,1003.37
2022-12-13T00:16:03.555Z,1003.36
2022-12-13T00:17:03.344Z,1003.38
2022-12-13T00:18:02.914Z,1003.37
2022-12-13T00:19:02.823Z,1003.33
2022-12-13T00:20:03.203Z,1003.34
2022-12-13T00:21:03.251Z,1003.35
2022-12-13T00:22:03.213Z,1003.35
2022-12-13T00:23:03.198Z,1003.31
2022-12-13T00:24:03.685Z,1003.35
2022-12-13T00:25:03.626Z,1003.36
2022-12-13T00:26:03.817Z,1003.36
2022-12-13T00:27:03.285Z,1003.37
2022-12-13T00:28:03.425Z,1003.38
2022-12-13T00:29:03.437Z,1003.39
2022-12-13T00:30:02.830Z,1003.37
2022-12-13T00:31:26.946Z,1003.35
2022-12-13T00:32:03.438Z,1003.42
2022-12-13T00:33:03.675Z,1003.40
2022-12-13T00:34:03.851Z,1003.40
2022-12-13T00:35:03.814Z,1003.37
2022-12-13T00:36:03.754Z,1003.36
2022-12-13T00:37:03.285Z,1003.37
2022-12-13T00:38:03.288Z,1003.34
2022-12-13T00:39:02.922Z,1003.36
2022-12-13T00:40:03.151Z,1003.37
2022-12-13T00:41:03.128Z,1003.35
2022-12-13T00:42:03.563Z,1003.33
2022-12-13T00:43:03.549Z,1003.33
2022-12-13T00:44:03.321Z,1003.37
2022-12-13T00:45:03.290Z,1003.38
2022-12-13T00:46:03.396Z,1003.38
2022-12-13T00:47:03.720Z,1003.42
2022-12-13T00:48:03.697Z,1003.45
2022-12-13T00:49:03.921Z,1003.47
2022-12-13T00:50:03.864Z,1003.44
2022-12-13T00:51:03.809Z,1003.45
2022-12-13T00:52:02.907Z,1003.49
2022-12-13T00:53:03.148Z,1003.48
2022-12-13T00:54:03.044Z,1003.46
2022-12-13T00:55:02.798Z,1003.46
2022-12-13T00:56:02.823Z,1003.41
2022-12-13T00:57:03.268Z,1003.45
2022-12-13T00:58:02.944Z,1003.42
2022-12-13T00:59:02.900Z,1003.41
2022-12-13T01:00:02.922Z,1003.41
2022-12-13T01:01:03.002Z,1003.39
2022-12-13T01:02:03.707Z,1003.39
2022-12-13T01:03:04.183Z,1003.40
2022-12-13T01:04:04.072Z,1003.43
2022-12-13T01:05:04.087Z,1003.40
2022-12-13T01:06:14.730Z,1003.40
2022-12-13T01:07:03.658Z,1003.40
2022-12-13T01:08:03.811Z,1003.47
2022-12-13T01:09:03.896Z,1003.40
2022-12-13T01:10:03.865Z,1003.44
2022-12-13T01:11:03.997Z,1003.40
2022-12-13T01:12:03.844Z,1003.38
2022-12-13T01:13:03.742Z,1003.41
2022-12-13T01:14:03.639Z,1003.38
2022-12-13T01:15:03.564Z,1003.29
2022-12-13T01:16:03.870Z,1003.32
2022-12-13T01:17:04.112Z,1003.33
2022-12-13T01:18:03.894Z,1003.28
2022-12-13T01:19:04.371Z,1003.31
2022-12-13T01:20:03.952Z,1003.29
2022-12-13T01:21:03.891Z,1003.30
2022-12-13T01:22:03.666Z,1003.28
2022-12-13T01:23:03.885Z,1003.31
2022-12-13T01:24:03.942Z,1003.31
2022-12-13T01:25:03.532Z,1003.28
2022-12-13T01:26:03.598Z,1003.29
2022-12-13T01:27:04.290Z,1003.31
2022-12-13T01:28:04.297Z,1003.31
2022-12-13T01:29:04.414Z,1003.27
2022-12-13T01:30:04.471Z,1003.35
2022-12-13T01:31:04.399Z,1003.33
2022-12-13T01:32:03.603Z,1003.40
2022-12-13T01:33:03.290Z,1003.37
2022-12-13T01:34:03.501Z,1003.39
2022-12-13T01:35:03.677Z,1003.39
2022-12-13T01:36:03.832Z,1003.42
2022-12-13T01:37:04.127Z,1003.39
2022-12-13T01:38:03.944Z,1003.39
2022-12-13T01:39:03.535Z,1003.40
2022-12-13T01:40:08.896Z,1003.41
2022-12-13T01:41:03.562Z,1003.42
2022-12-13T01:42:03.909Z,1003.41
2022-12-13T01:43:03.973Z,1003.41
2022-12-13T01:44:03.853Z,1003.40
2022-12-13T01:45:03.846Z,1003.35
2022-12-13T01:46:04.080Z,1003.40
2022-12-13T01:47:03.053Z,1003.37
2022-12-13T01:48:02.986Z,1003.36
2022-12-13T01:49:02.942Z,1003.37
2022-12-13T01:50:03.224Z,1003.36
2022-12-13T01:51:02.965Z,1003.34
2022-12-13T01:52:03.237Z,1003.35
2022-12-13T01:53:03.371Z,1003.33
2022-12-13T01:54:03.335Z,1003.32
2022-12-13T01:55:03.951Z,1003.37
2022-12-13T01:56:03.462Z,1003.34
2022-12-13T01:57:03.451Z,1003.37
2022-12-13T01:58:04.029Z,1003.34
2022-12-13T01:59:03.641Z,1003.33
2022-12-13T02:00:04.058Z,1003.36
2022-12-13T02:01:03.646Z,1003.35
2022-12-13T02:02:03.948Z,1003.37
2022-12-13T02:03:03.988Z,1003.32
2022-12-13T02:04:04.187Z,1003.30
2022-12-13T02:05:04.060Z,1003.33
2022-12-13T02:06:04.152Z,1003.30
2022-12-13T02:07:04.304Z,1003.33
2022-12-13T02:08:03.910Z,1003.30
2022-12-13T02:09:04.413Z,1003.30
2022-12-13T02:10:03.993Z,1003.31
2022-12-13T02:11:03.923Z,1003.32
2022-12-13T02:12:03.738Z,1003.32
2022-12-13T02:13:03.770Z,1003.30
2022-12-13T02:14:03.854Z,1003.37
2022-12-13T02:15:03.429Z,1003.35
2022-12-13T02:16:03.420Z,1003.34
2022-12-13T02:17:04.195Z,1003.34
2022-12-13T02:18:04.018Z,1003.33
2022-12-13T02:19:04.257Z,1003.34
2022-12-13T02:20:03.972Z,1003.31
2022-12-13T02:21:03.958Z,1003.31
2022-12-13T02:22:04.389Z,1003.31
2022-12-13T02:23:04.223Z,1003.32
2022-12-13T02:24:08.632Z,1003.31
2022-12-13T02:25:04.236Z,1003.30
2022-12-13T02:26:04.197Z,1003.32
2022-12-13T02:27:04.026Z,1003.32
2022-12-13T02:28:04.269Z,1003.31
2022-12-13T02:29:03.951Z,1003.31
2022-12-13T02:30:03.960Z,1003.33
2022-12-13T02:31:03.990Z,1003.33
2022-12-13T02:32:04.475Z,1003.33
2022-12-13T02:33:03.953Z,1003.37
2022-12-13T02:34:04.148Z,1003.34
2022-12-13T02:35:03.856Z,1003.40
2022-12-13T02:36:03.949Z,1003.36
2022-12-13T02:37:04.160Z,1003.35
2022-12-13T02:38:03.597Z,1003.39
2022-12-13T02:39:03.772Z,1003.37
2022-12-13T02:40:03.604Z,1003.30
2022-12-13T02:41:04.088Z,1003.35
2022-12-13T02:42:04.259Z,1003.42
2022-12-13T02:43:03.614Z,1003.43
2022-12-13T02:44:03.792Z,1003.43
2022-12-13T02:45:03.582Z,1003.39
2022-12-13T02:46:03.863Z,1003.43
2022-12-13T02:47:02.916Z,1003.39
2022-12-13T02:48:03.336Z,1003.42
2022-12-13T02:49:03.535Z,1003.41
2022-12-13T02:50:02.862Z,1003.39
2022-12-13T02:51:03.261Z,1003.41
2022-12-13T02:52:03.184Z,1003.40
2022-12-13T02:53:03.319Z,1003.38
2022-12-13T02:54:03.629Z,1003.38
2022-12-13T02:55:03.076Z,1003.40
2022-12-13T02:56:03.669Z,1003.38
2022-12-13T02:57:03.664Z,1003.41
2022-12-13T02:58:03.128Z,1003.40
2022-12-13T02:59:03.153Z,1003.42
2022-12-13T03:00:03.287Z,1003.36
2022-12-13T03:01:03.389Z,1003.36
2022-12-13T03:02:09.896Z,1003.36
2022-12-13T03:03:03.952Z,1003.33
2022-12-13T03:04:03.860Z,1003.31
2022-12-13T03:05:03.878Z,1003.31
2022-12-13T03:06:04.102Z,1003.31
2022-12-13T03:07:04.247Z,1003.31
2022-12-13T03:08:04.693Z,1003.29
2022-12-13T03:09:04.729Z,1003.25
2022-12-13T03:10:04.406Z,1003.27
2022-12-13T03:11:04.347Z,1003.27
2022-12-13T03:12:04.062Z,1003.30
2022-12-13T03:13:03.493Z,1003.27
2022-12-13T03:14:03.627Z,1003.27
2022-12-13T03:15:03.654Z,1003.28
2022-12-13T03:16:03.830Z,1003.26
2022-12-13T03:17:04.197Z,1003.26
2022-12-13T03:18:04.300Z,1003.24
2022-12-13T03:19:04.332Z,1003.30
2022-12-13T03:20:03.998Z,1003.29
2022-12-13T03:21:04.496Z,1003.34
2022-12-13T03:22:04.390Z,1003.33
2022-12-13T03:23:04.530Z,1003.34
2022-12-13T03:24:04.329Z,1003.34
2022-12-13T03:25:04.377Z,1003.32
2022-12-13T03:26:04.456Z,1003.33
2022-12-13T03:27:03.715Z,1003.37
2022-12-13T03:28:04.095Z,1003.34
2022-12-13T03:29:03.976Z,1003.35
2022-12-13T03:30:04.185Z,1003.36
2022-12-13T03:31:04.052Z,1003.34
2022-12-13T03:32:03.647Z,1003.29
2022-12-13T03:33:03.632Z,1003.33
2022-12-13T03:34:03.815Z,1003.30
2022-12-13T03:35:03.745Z,1003.36
2022-12-13T03:36:04.083Z,1003.35
2022-12-13T03:37:03.925Z,1003.30
2022-12-13T03:38:04.007Z,1003.28
2022-12-13T03:39:04.149Z,1003.27
2022-12-13T03:40:03.831Z,1003.28
2022-12-13T03:41:04.047Z,1003.27
2022-12-13T03:42:04.153Z,1003.23
2022-12-13T03:43:04.704Z,1003.21
2022-12-13T03:44:04.498Z,1003.21
2022-12-13T03:45:04.141Z,1003.23
2022-12-13T03:46:04.549Z,1003.23
2022-12-13T03:47:03.656Z,1003.22
2022-12-13T03:48:03.957Z,1003.24
2022-12-13T03:49:03.897Z,1003.25
2022-12-13T03:50:07.511Z,1003.24
2022-12-13T03:51:03.687Z,1003.23
2022-12-13T03:52:03.559Z,1003.22
2022-12-13T03:53:03.593Z,1003.23
2022-12-13T03:54:03.429Z,1003.23
2022-12-13T03:55:03.430Z,1003.25
2022-12-13T03:56:03.713Z,1003.22
2022-12-13T03:57:03.882Z,1003.19
2022-12-13T03:58:07.886Z,1003.20
2022-12-13T03:59:03.692Z,1003.18
2022-12-13T04:00:03.818Z,1003.19
2022-12-13T04:01:03.930Z,1003.12
2022-12-13T04:02:04.058Z,1003.13
2022-12-13T04:03:04.284Z,1003.16
2022-12-13T04:04:04.317Z,1003.11
2022-12-13T04:05:03.912Z,1003.19
2022-12-13T04:06:04.034Z,1003.18
2022-12-13T04:07:03.495Z,1003.22
2022-12-13T04:08:03.811Z,1003.20
2022-12-13T04:09:03.384Z,1003.22
2022-12-13T04:10:03.527Z,1003.24
2022-12-13T04:11:03.451Z,1003.24
2022-12-13T04:12:03.560Z,1003.27
2022-12-13T04:13:03.827Z,1003.23
2022-12-13T04:14:03.794Z,1003.24
2022-12-13T04:15:03.747Z,1003.22
2022-12-13T04:16:04.057Z,1003.21
2022-12-13T04:17:04.048Z,1003.16
2022-12-13T04:18:04.117Z,1003.21
2022-12-13T04:19:04.029Z,1003.19
2022-12-13T04:20:04.069Z,1003.18
2022-12-13T04:21:03.954Z,1003.18
2022-12-13T04:22:03.580Z,1003.19
2022-12-13T04:23:10.140Z,1003.17
2022-12-13T04:24:04.129Z,1003.17
2022-12-13T04:25:03.768Z,1003.18
2022-12-13T04:26:03.790Z,1003.17
2022-12-13T04:27:03.153Z,1003.16
2022-12-13T04:28:02.889Z,1003.14
2022-12-13T04:29:02.828Z,1003.19
2022-12-13T04:30:02.929Z,1003.16
2022-12-13T04:31:03.423Z,1003.19
2022-12-13T04:32:03.428Z,1003.22
2022-12-13T04:33:03.874Z,1003.22
2022-12-13T04:34:03.330Z,1003.16
2022-12-13T04:35:03.629Z,1003.19
2022-12-13T04:36:03.894Z,1003.15
2022-12-13T04:37:02.793Z,1003.22
2022-12-13T04:38:03.354Z,1003.15
2022-12-13T04:39:03.018Z,1003.16
2022-12-13T04:40:03.246Z,1003.18
2022-12-13T04:41:03.066Z,1003.10
2022-12-13T04:42:03.146Z,1003.14
2022-12-13T04:43:02.972Z,1003.14
2022-12-13T04:44:02.872Z,1003.14
2022-12-13T04:45:03.266Z,1003.15
2022-12-13T04:46:02.996Z,1003.13
2022-12-13T04:47:03.228Z,1003.13
2022-12-13T04:48:03.305Z,1003.15
2022-12-13T04:49:03.360Z,1003.17
2022-12-13T04:50:03.301Z,1003.14
2022-12-13T04:51:03.131Z,1003.15
2022-12-13T04:52:03.297Z,1003.12
2022-12-13T04:53:02.858Z,1003.04
2022-12-13T04:54:23.403Z,1003.04
2022-12-13T04:55:03.332Z,1003.04
2022-12-13T04:56:03.062Z,1003.04
2022-12-13T04:57:03.762Z,1003.01
2022-12-13T04:58:03.721Z,1002.98
2022-12-13T04:59:03.087Z,1002.98
2022-12-13T05:00:03.153Z,1002.96
2022-12-13T05:01:03.757Z,1002.96
2022-12-13T05:02:04.183Z,1002.94
2022-12-13T05:03:04.277Z,1002.94
2022-12-13T05:04:04.269Z,1002.92
2022-12-13T05:05:04.643Z,1002.91
2022-12-13T05:06:04.385Z,1002.93
2022-12-13T05:07:03.948Z,1002.93
2022-12-13T05:08:03.964Z,1002.97
2022-12-13T05:09:03.801Z,1002.93
2022-12-13T05:10:03.929Z,1002.91
2022-12-13T05:11:03.535Z,1002.88
2022-12-13T05:12:04.012Z,1002.89
2022-12-13T05:13:03.824Z,1002.88
2022-12-13T05:14:03.928Z,1002.89
2022-12-13T05:15:03.743Z,1002.89
2022-12-13T05:16:04.365Z,1002.89
2022-12-13T05:17:03.345Z,1002.88
2022-12-13T05:18:09.996Z,1002.80
2022-12-13T05:19:03.763Z,1002.83
2022-12-13T05:20:03.218Z,1002.78
2022-12-13T05:21:03.718Z,1002.83
2022-12-13T05:22:03.846Z,1002.78
2022-12-13T05:23:03.801Z,1002.78
2022-12-13T05:24:03.328Z,1002.79
2022-12-13T05:25:03.349Z,1002.75
2022-12-13T05:26:03.674Z,1002.73
2022-12-13T05:27:24.612Z,1002.71
2022-12-13T05:28:26.876Z,1002.74
2022-12-13T05:29:03.676Z,1002.73
2022-12-13T05:30:04.974Z,1002.74
2022-12-13T05:31:03.644Z,1002.76
2022-12-13T05:32:04.254Z,1002.80
2022-12-13T05:33:04.058Z,1002.78
2022-12-13T05:34:03.787Z,1002.76
2022-12-13T05:35:03.951Z,1002.72
2022-12-13T05:36:03.853Z,1002.77
2022-12-13T05:37:04.071Z,1002.74
2022-12-13T05:38:04.389Z,1002.73
2022-12-13T05:39:03.953Z,1002.76
2022-12-13T05:40:04.060Z,1002.74
2022-12-13T05:41:04.101Z,1002.70
2022-12-13T05:42:04.079Z,1002.73
2022-12-13T05:43:03.631Z,1002.70
2022-12-13T05:44:03.498Z,1002.71
2022-12-13T05:45:03.922Z,1002.71
2022-12-13T05:46:03.500Z,1002.72
2022-12-13T05:47:03.815Z,1002.71
2022-12-13T05:48:03.849Z,1002.76
2022-12-13T05:49:04.330Z,1002.76
2022-12-13T05:50:04.245Z,1002.75
2022-12-13T05:51:10.957Z,1002.73
2022-12-13T05:52:03.152Z,1002.70
2022-12-13T05:53:03.517Z,1002.69
2022-12-13T05:54:03.174Z,1002.69
2022-12-13T05:55:02.957Z,1002.69
2022-12-13T05:56:03.418Z,1002.73
2022-12-13T05:57:03.639Z,1002.72
2022-12-13T05:58:03.609Z,1002.71
2022-12-13T05:59:03.422Z,1002.71
2022-12-13T06:00:03.327Z,1002.75
2022-12-13T06:01:03.435Z,1002.71
2022-12-13T06:02:04.742Z,1002.69
2022-12-13T06:03:04.455Z,1002.67
2022-12-13T06:04:04.686Z,1002.68
2022-12-13T06:05:04.800Z,1002.66
2022-12-13T06:06:04.586Z,1002.67
2022-12-13T06:07:04.287Z,1002.68
2022-12-13T06:08:03.985Z,1002.66
2022-12-13T06:09:03.870Z,1002.67
2022-12-13T06:10:10.040Z,1002.66
2022-12-13T06:11:11.397Z,1002.73
2022-12-13T06:12:04.540Z,1002.70
2022-12-13T06:13:21.193Z,1002.72
2022-12-13T06:14:04.062Z,1002.70
2022-12-13T06:15:04.581Z,1002.66
2022-12-13T06:16:04.174Z,1002.68
2022-12-13T06:17:03.905Z,1002.65
2022-12-13T06:18:03.918Z,1002.63
2022-12-13T06:19:04.857Z,1002.64
2022-12-13T06:20:03.662Z,1002.64
2022-12-13T06:21:04.149Z,1002.68
2022-12-13T06:22:04.701Z,1002.64
2022-12-13T06:23:04.450Z,1002.64
2022-12-13T06:24:04.062Z,1002.65
2022-12-13T06:25:04.395Z,1002.63
2022-12-13T06:26:04.304Z,1002.62
2022-12-13T06:27:03.405Z,1002.64
2022-12-13T06:28:03.461Z,1002.60
2022-12-13T06:29:03.411Z,1002.63
2022-12-13T06:30:03.670Z,1002.61
2022-12-13T06:31:03.825Z,1002.60
2022-12-13T06:32:04.279Z,1002.62
2022-12-13T06:33:04.295Z,1002.63
2022-12-13T06:34:14.329Z,1002.61
2022-12-13T06:35:27.242Z,1002.64
2022-12-13T06:36:04.220Z,1002.59
2022-12-13T06:37:03.319Z,1002.60
2022-12-13T06:38:03.630Z,1002.65
2022-12-13T06:39:03.686Z,1002.61
2022-12-13T06:40:03.941Z,1002.63
2022-12-13T06:41:03.683Z,1002.63
2022-12-13T06:42:04.215Z,1002.66
2022-12-13T06:43:04.222Z,1002.63
2022-12-13T06:44:04.463Z,1002.61
2022-12-13T06:45:04.194Z,1002.64
2022-12-13T06:46:04.183Z,1002.62
2022-12-13T06:47:11.275Z,1002.64
2022-12-13T06:48:04.159Z,1002.66
2022-12-13T06:49:03.997Z,1002.61
2022-12-13T06:50:05.630Z,1002.62
2022-12-13T06:51:03.903Z,1002.64
2022-12-13T06:52:03.734Z,1002.64
2022-12-13T06:53:03.877Z,1002.65
2022-12-13T06:54:03.928Z,1002.64
2022-12-13T06:55:03.715Z,1002.68
2022-12-13T06:56:04.056Z,1002.69
2022-12-13T06:57:04.017Z,1002.69
2022-12-13T06:58:04.030Z,1002.69
2022-12-13T06:59:04.033Z,1002.68
2022-12-13T07:00:04.542Z,1002.69
2022-12-13T07:01:04.209Z,1002.66
2022-12-13T07:02:04.386Z,1002.64
2022-12-13T07:03:04.088Z,1002.64
2022-12-13T07:04:04.349Z,1002.66
2022-12-13T07:05:04.490Z,1002.67
2022-12-13T07:06:04.283Z,1002.66
2022-12-13T07:07:04.596Z,1002.65
2022-12-13T07:08:04.580Z,1002.63
2022-12-13T07:09:04.615Z,1002.62
2022-12-13T07:10:04.509Z,1002.62
2022-12-13T07:11:04.705Z,1002.61
2022-12-13T07:12:04.994Z,1002.62
2022-12-13T07:13:03.914Z,1002.60
2022-12-13T07:14:03.979Z,1002.61
2022-12-13T07:15:04.218Z,1002.59
2022-12-13T07:16:04.476Z,1002.60
2022-12-13T07:17:04.954Z,1002.64
2022-12-13T07:18:04.681Z,1002.61
2022-12-13T07:19:05.069Z,1002.66
2022-12-13T07:20:04.902Z,1002.61
2022-12-13T07:21:04.719Z,1002.58
2022-12-13T07:22:04.472Z,1002.58
2022-12-13T07:23:04.388Z,1002.60
2022-12-13T07:24:04.353Z,1002.60
2022-12-13T07:25:04.376Z,1002.60
2022-12-13T07:26:04.146Z,1002.64
2022-12-13T07:27:04.289Z,1002.63
2022-12-13T07:28:04.704Z,1002.65
2022-12-13T07:29:04.186Z,1002.62
2022-12-13T07:30:04.448Z,1002.64
2022-12-13T07:31:04.301Z,1002.59
2022-12-13T07:32:04.561Z,1002.62
2022-12-13T07:33:04.610Z,1002.61
2022-12-13T07:34:04.346Z,1002.65
2022-12-13T07:35:04.821Z,1002.69
2022-12-13T07:36:04.768Z,1002.71
2022-12-13T07:37:04.601Z,1002.73
2022-12-13T07:38:04.827Z,1002.71
2022-12-13T07:39:04.300Z,1002.69
2022-12-13T07:40:04.891Z,1002.67
2022-12-13T07:41:04.419Z,1002.70
2022-12-13T07:42:04.373Z,1002.65
2022-12-13T07:43:04.418Z,1002.63
2022-12-13T07:44:04.747Z,1002.63
2022-12-13T07:45:04.575Z,1002.67
2022-12-13T07:46:04.739Z,1002.59
2022-12-13T07:47:04.686Z,1002.61
2022-12-13T07:48:04.338Z,1002.64
2022-12-13T07:49:04.749Z,1002.64
2022-12-13T07:50:04.301Z,1002.60
2022-12-13T07:51:04.671Z,1002.63
2022-12-13T07:52:04.293Z,1002.61
2022-12-13T07:53:04.117Z,1002.66
2022-12-13T07:54:06.666Z,1002.66
2022-12-13T07:55:04.261Z,1002.63
2022-12-13T07:56:03.876Z,1002.65
2022-12-13T07:57:04.615Z,1002.57
2022-12-13T07:58:03.909Z,1002.57
2022-12-13T07:59:03.369Z,1002.55
2022-12-13T08:00:03.296Z,1002.55
2022-12-13T08:01:03.692Z,1002.57
2022-12-13T08:02:04.332Z,1002.54
2022-12-13T08:03:04.087Z,1002.54
2022-12-13T08:04:03.969Z,1002.53
2022-12-13T08:05:25.744Z,1002.54
2022-12-13T08:06:04.367Z,1002.55
2022-12-13T08:07:04.732Z,1002.55
2022-12-13T08:08:04.424Z,1002.57
2022-12-13T08:09:04.534Z,1002.60
2022-12-13T08:10:04.663Z,1002.61
2022-12-13T08:11:04.390Z,1002.63
2022-12-13T08:12:04.182Z,1002.62
2022-12-13T08:13:04.256Z,1002.62
2022-12-13T08:14:03.859Z,1002.64
2022-12-13T08:15:04.684Z,1002.61
2022-12-13T08:16:04.388Z,1002.65
2022-12-13T08:17:04.416Z,1002.64
2022-12-13T08:18:04.505Z,1002.65
2022-12-13T08:19:04.913Z,1002.69
2022-12-13T08:20:04.490Z,1002.69
2022-12-13T08:21:14.045Z,1002.67
2022-12-13T08:22:04.456Z,1002.74
2022-12-13T08:23:04.811Z,1002.74
2022-12-13T08:24:04.895Z,1002.75
2022-12-13T08:25:04.891Z,1002.81
2022-12-13T08:26:04.384Z,1002.73
2022-12-13T08:27:04.144Z,1002.74
2022-12-13T08:28:03.998Z,1002.77
2022-12-13T08:29:04.115Z,1002.82
2022-12-13T08:30:03.840Z,1002.83
2022-12-13T08:31:03.790Z,1002.79
2022-12-13T08:32:04.185Z,1002.80
2022-12-13T08:33:05.274Z,1002.80
2022-12-13T08:34:03.677Z,1002.73
2022-12-13T08:35:04.115Z,1002.82
2022-12-13T08:36:04.195Z,1002.80
2022-12-13T08:37:04.689Z,1002.77
2022-12-13T08:38:04.515Z,1002.76
2022-12-13T08:39:04.102Z,1002.72
2022-12-13T08:40:04.157Z,1002.70
2022-12-13T08:41:04.235Z,1002.71
2022-12-13T08:42:16.655Z,1002.68
2022-12-13T08:43:04.089Z,1002.68
2022-12-13T08:44:03.675Z,1002.70
2022-12-13T08:45:03.997Z,1002.68
2022-12-13T08:46:03.908Z,1002.67
2022-12-13T08:47:04.112Z,1002.63
2022-12-13T08:48:04.067Z,1002.69
2022-12-13T08:49:03.934Z,1002.74
2022-12-13T08:50:04.548Z,1002.73
2022-12-13T08:51:03.854Z,1002.71
2022-12-13T08:52:03.662Z,1002.74
2022-12-13T08:53:03.355Z,1002.74
2022-12-13T08:54:10.316Z,1002.77
2022-12-13T08:55:03.451Z,1002.80
2022-12-13T08:56:03.568Z,1002.82
2022-12-13T08:57:03.847Z,1002.82
2022-12-13T08:58:03.663Z,1002.81
2022-12-13T08:59:03.580Z,1002.84
2022-12-13T09:00:03.371Z,1002.81
2022-12-13T09:01:03.474Z,1002.81
2022-12-13T09:02:05.325Z,1002.82
2022-12-13T09:03:04.572Z,1002.79
2022-12-13T09:04:05.240Z,1002.81
2022-12-13T09:05:05.060Z,1002.86
2022-12-13T09:06:05.037Z,1002.83
2022-12-13T09:07:04.306Z,1002.87
2022-12-13T09:08:03.747Z,1002.82
2022-12-13T09:09:03.918Z,1002.84
2022-12-13T09:10:07.271Z,1002.83
2022-12-13T09:11:10.571Z,1002.78
2022-12-13T09:12:10.694Z,1002.80
2022-12-13T09:13:11.487Z,1002.81
2022-12-13T09:14:04.243Z,1002.86
2022-12-13T09:15:04.611Z,1002.88
2022-12-13T09:16:04.387Z,1002.90
2022-12-13T09:17:04.990Z,1002.95
2022-12-13T09:18:05.738Z,1002.91
2022-12-13T09:19:24.690Z,1002.95
2022-12-13T09:20:10.170Z,1002.88
2022-12-13T09:21:10.382Z,1002.93
2022-12-13T09:22:04.624Z,1002.93
2022-12-13T09:23:04.385Z,1002.94
2022-12-13T09:24:04.045Z,1002.94
2022-12-13T09:25:04.313Z,1002.92
2022-12-13T09:26:05.448Z,1002.91
2022-12-13T09:27:09.258Z,1002.89
2022-12-13T09:28:04.618Z,1002.90
2022-12-13T09:29:10.942Z,1002.87
2022-12-13T09:30:04.233Z,1002.81
2022-12-13T09:31:04.817Z,1002.77
2022-12-13T09:32:03.796Z,1002.78
2022-12-13T09:33:17.838Z,1002.78
2022-12-13T09:34:03.973Z,1002.80
2022-12-13T09:35:03.700Z,1002.80
2022-12-13T09:36:04.023Z,1002.83
2022-12-13T09:37:04.137Z,1002.78
2022-12-13T09:38:04.451Z,1002.77
2022-12-13T09:39:04.026Z,1002.80
2022-12-13T09:40:16.392Z,1002.82
2022-12-13T09:41:04.422Z,1002.79
2022-12-13T09:42:10.627Z,1002.83
2022-12-13T09:43:21.649Z,1002.83
2022-12-13T09:44:03.673Z,1002.79
2022-12-13T09:45:04.339Z,1002.82
2022-12-13T09:46:03.845Z,1002.85
2022-12-13T09:47:04.057Z,1002.86
2022-12-13T09:48:07.188Z,1002.89
2022-12-13T09:49:03.975Z,1002.91
2022-12-13T09:50:04.227Z,1002.93
2022-12-13T09:51:17.173Z,1002.93
2022-12-13T09:52:11.058Z,1002.94
2022-12-13T09:53:04.011Z,1002.90
2022-12-13T09:54:03.855Z,1002.91
2022-12-13T09:55:07.913Z,1002.89
2022-12-13T09:56:10.069Z,1002.86
2022-12-13T09:57:03.359Z,1002.87
2022-12-13T09:58:03.536Z,1002.90
2022-12-13T09:59:03.810Z,1002.92
2022-12-13T10:00:03.202Z,1002.92
2022-12-13T10:01:03.537Z,1002.89
2022-12-13T10:02:04.398Z,1002.90
2022-12-13T10:03:04.732Z,1002.85
2022-12-13T10:04:04.250Z,1002.85
2022-12-13T10:05:04.207Z,1002.83
2022-12-13T10:06:04.693Z,1002.83
2022-12-13T10:07:03.872Z,1002.81
2022-12-13T10:08:03.717Z,1002.80
2022-12-13T10:09:03.941Z,1002.85
2022-12-13T10:10:03.644Z,1002.90
2022-12-13T10:11:03.580Z,1002.83
2022-12-13T10:12:03.851Z,1002.88
2022-12-13T10:13:04.137Z,1002.83
2022-12-13T10:14:03.996Z,1002.79
2022-12-13T10:15:03.716Z,1002.78
2022-12-13T10:16:04.250Z,1002.77
2022-12-13T10:17:04.213Z,1002.74
2022-12-13T10:18:04.297Z,1002.69
2022-12-13T10:19:04.501Z,1002.69
2022-12-13T10:20:04.414Z,1002.68
2022-12-13T10:21:03.981Z,1002.62
2022-12-13T10:22:03.537Z,1002.60
2022-12-13T10:24:36.284Z,1002.60
2022-12-13T10:25:03.589Z,1002.58
2022-12-13T10:26:03.877Z,1002.57
2022-12-13T10:27:03.859Z,1002.59
2022-12-13T10:28:04.324Z,1002.52
2022-12-13T10:29:04.276Z,1002.48
2022-12-13T10:30:04.333Z,1002.53
2022-12-13T10:31:03.758Z,1002.49
2022-12-13T10:32:03.558Z,1002.49
2022-12-13T10:33:03.314Z,1002.49
2022-12-13T10:34:03.574Z,1002.51
2022-12-13T10:35:03.294Z,1002.51
2022-12-13T10:36:03.552Z,1002.44
2022-12-13T10:37:04.069Z,1002.43
2022-12-13T10:38:04.033Z,1002.41
2022-12-13T10:39:04.448Z,1002.43
2022-12-13T10:40:04.304Z,1002.44
2022-12-13T10:41:03.829Z,1002.42
2022-12-13T10:42:03.373Z,1002.37
2022-12-13T10:43:03.193Z,1002.36
2022-12-13T10:44:03.503Z,1002.30
2022-12-13T10:45:03.152Z,1002.24
2022-12-13T10:46:03.079Z,1002.23
2022-12-13T10:47:03.274Z,1002.26
2022-12-13T10:48:04.345Z,1002.22
2022-12-13T10:49:03.557Z,1002.28
2022-12-13T10:50:03.135Z,1002.25
2022-12-13T10:51:03.340Z,1002.25
2022-12-13T10:52:03.403Z,1002.31
2022-12-13T10:53:03.803Z,1002.28
2022-12-13T10:54:03.790Z,1002.31
2022-12-13T10:55:03.447Z,1002.28
2022-12-13T10:56:03.855Z,1002.30
2022-12-13T10:57:03.764Z,1002.28
2022-12-13T10:58:04.111Z,1002.22
2022-12-13T10:59:03.855Z,1002.21
2022-12-13T11:00:03.830Z,1002.19
2022-12-13T11:01:03.891Z,1002.18
2022-12-13T11:02:03.840Z,1002.10
2022-12-13T11:03:04.087Z,1002.14
2022-12-13T11:04:03.554Z,1002.09
2022-12-13T11:05:08.212Z,1002.04
2022-12-13T11:06:03.972Z,1002.02
2022-12-13T11:07:03.271Z,1002.01
2022-12-13T11:08:03.101Z,1002.01
2022-12-13T11:09:02.996Z,1001.99
2022-12-13T11:10:04.854Z,1001.96
2022-12-13T11:11:03.326Z,1001.97
2022-12-13T11:12:03.847Z,1001.93
2022-12-13T11:13:03.621Z,1001.86
2022-12-13T11:14:03.566Z,1001.85
2022-12-13T11:15:03.506Z,1001.82
2022-12-13T11:16:03.719Z,1001.84
2022-12-13T11:17:03.358Z,1001.81
2022-12-13T11:18:02.965Z,1001.84
2022-12-13T11:19:03.076Z,1001.87
2022-12-13T11:20:03.399Z,1001.86
2022-12-13T11:21:03.475Z,1001.83
2022-12-13T11:22:03.575Z,1001.81
2022-12-13T11:23:03.310Z,1001.79
2022-12-13T11:24:03.293Z,1001.73
2022-12-13T11:25:03.289Z,1001.70
2022-12-13T11:26:03.398Z,1001.70
2022-12-13T11:27:03.571Z,1001.68
2022-12-13T11:28:03.688Z,1001.67
2022-12-13T11:29:03.808Z,1001.67
2022-12-13T11:30:03.275Z,1001.68
2022-12-13T11:31:03.785Z,1001.69
2022-12-13T11:32:03.946Z,1001.72
2022-12-13T11:33:04.065Z,1001.69
2022-12-13T11:34:03.505Z,1001.68
2022-12-13T11:35:03.664Z,1001.65
2022-12-13T11:36:03.916Z,1001.62
2022-12-13T11:37:03.428Z,1001.62
2022-12-13T11:38:03.606Z,1001.56
2022-12-13T11:39:03.302Z,1001.58
2022-12-13T11:40:03.559Z,1001.51
2022-12-13T11:41:03.386Z,1001.51
2022-12-13T11:42:03.299Z,1001.44
2022-12-13T11:43:03.718Z,1001.43
2022-12-13T11:44:03.901Z,1001.47
2022-12-13T11:45:03.831Z,1001.49
2022-12-13T11:46:03.347Z,1001.50
2022-12-13T11:47:03.778Z,1001.49
2022-12-13T11:48:03.991Z,1001.45
2022-12-13T11:49:03.492Z,1001.45
2022-12-13T11:50:03.675Z,1001.42
2022-12-13T11:51:03.716Z,1001.50
2022-12-13T11:52:04.011Z,1001.47
2022-12-13T11:53:03.613Z,1001.53
2022-12-13T11:54:03.334Z,1001.53
2022-12-13T11:55:03.512Z,1001.44
2022-12-13T11:56:03.913Z,1001.45
2022-12-13T11:57:03.476Z,1001.50
2022-12-13T11:58:03.595Z,1001.42
2022-12-13T11:59:04.971Z,1001.48
2022-12-13T12:00:03.612Z,1001.48
2022-12-13T12:01:03.185Z,1001.41
2022-12-13T12:02:04.926Z,1001.38
2022-12-13T12:03:04.257Z,1001.40
2022-12-13T12:04:04.117Z,1001.39
2022-12-13T12:05:04.694Z,1001.40
2022-12-13T12:06:05.084Z,1001.39